Flight Track Log - Related Links

Times and Time Zones

All times are in EDT time to prevent confusion due to time zone crossing. See the N717AN flight status page for this flight to view local times or setup timezone preferences in your user account.

Time Position Orientation Groundspeed Altitude Reporting Facility
EDT Latitude Longitude Course Direction KTS MPH feet Rate Location/Type
Sat 08:55:40 PM 40.6500 -73.7970 North 16 18  Level FlightAware ADS-B
Sat 08:55:54 PM 40.6510 -73.7960 37° Northeast 18 21 16 Level FlightAware ADS-B
Sat 08:56:28 PM 40.6520 -73.7930 66° East 33 38 16 Level FlightAware ADS-B
Sat 08:56:34 PM 40.6520 -73.7920 90° East 33 38 16 Level FlightAware ADS-B
Sat 08:56:55 PM 40.6520 -73.7910 90° East 27 31 16 Level FlightAware ADS-B
Sat 08:59:00 PM 40.8502 -73.5916 21° North  Level FlightAware Approximate
Sat 09:00:00 PM 40.9460 -73.5040 37° Northeast  Level FlightAware Approximate
Sat 09:01:00 PM 41.0462 -73.4117 33° Northeast  Level FlightAware Approximate
Sat 09:02:00 PM 41.1468 -73.3198 37° Northeast  Level FlightAware Approximate
Sat 09:03:00 PM 41.2506 -73.2353 33° Northeast  Level FlightAware Approximate
Sat 09:04:00 PM 41.3531 -73.1469 37° Northeast  Level FlightAware Approximate
Sat 09:05:00 PM 41.4223 -73.0275 62° Northeast  Level FlightAware Approximate
Sat 09:06:00 PM 41.4799 -72.8838 62° Northeast  Level FlightAware Approximate
Sat 09:07:00 PM 41.5442 -72.7478 62° Northeast  Level FlightAware Approximate
Sat 09:08:00 PM 41.6001 -72.6055 51° Northeast  Level FlightAware Approximate
Sat 09:09:00 PM 41.6786 -72.4881 37° Northeast  Level FlightAware Approximate
Sat 09:10:00 PM 41.7734 -72.3855 45° Northeast  Level FlightAware Approximate
Sat 09:11:00 PM 41.8713 -72.2889 33° Northeast  Level FlightAware Approximate
Sat 09:12:00 PM 41.9667 -72.1874 43° Northeast  Level FlightAware Approximate
Sat 09:12:47 PM 40.6510 -73.7880 90° East 22 25  Level FlightAware ADS-B
Sat 09:13:55 PM 40.6520 -73.7860 57° Northeast 21 24 22 Level FlightAware ADS-B
Sat 09:14:25 PM 40.6530 -73.7850 37° Northeast 24 28 23 Level FlightAware ADS-B
Sat 09:15:02 PM 40.6540 -73.7840 37° Northeast 25 29 23 Level FlightAware ADS-B
Sat 09:15:16 PM 40.6540 -73.7830 90° East 29 33 23 Level FlightAware ADS-B
Sat 09:15:43 PM 40.6550 -73.7790 72° East 29 33 23 Level FlightAware ADS-B
Sat 09:16:01 PM 40.6530 -73.7800 201° Southwest 18 21 24 Level FlightAware ADS-B
Sat 09:16:24 PM 40.6520 -73.7770 114° Southeast 20 23 24 Level FlightAware ADS-B
Sat 09:17:14 PM 40.6500 -73.7730 123° Southeast 27 31 24 Level FlightAware ADS-B
Sat 09:19:00 PM 40.8065 -73.6134 21° North  Level FlightAware Approximate
Sat 09:20:00 PM 40.9087 -73.5413 37° Northeast  Level FlightAware Approximate
Sat 09:21:00 PM 41.0072 -73.4458 33° Northeast  Level FlightAware Approximate
Sat 09:22:00 PM 41.1091 -73.3566 33° Northeast  Level FlightAware Approximate
Sat 09:23:00 PM 41.2123 -73.2710 37° Northeast  Level FlightAware Approximate
Sat 09:24:00 PM 41.3139 -73.1810 33° Northeast  Level FlightAware Approximate
Sat 09:25:00 PM 41.4003 -73.0826 62° Northeast  Level FlightAware Approximate
Sat 09:26:00 PM 41.4578 -72.9389 62° Northeast  Level FlightAware Approximate
Sat 09:27:00 PM 41.5222 -72.8029 62° Northeast  Level FlightAware Approximate
Sat 09:28:00 PM 41.5798 -72.6590 62° Northeast  Level FlightAware Approximate
Sat 09:29:00 PM 41.6411 -72.5256 37° Northeast  Level FlightAware Approximate
Sat 09:30:00 PM 41.7390 -72.4277 37° Northeast  Level FlightAware Approximate
Sat 09:31:00 PM 41.8319 -72.3227 33° Northeast  Level FlightAware Approximate
Sat 09:32:00 PM 41.9325 -72.2303 43° Northeast  Level FlightAware Approximate
Sat 09:33:00 PM 42.0256 -72.1244 37° Northeast  Level FlightAware Approximate
Sat 09:34:00 PM 42.1221 -72.0236 39° Northeast  Level FlightAware Approximate
Sat 09:35:00 PM 42.2174 -71.9206 39° Northeast  Level FlightAware Approximate
Sat 09:36:00 PM 42.3126 -71.8172 39° Northeast  Level FlightAware Approximate
Sat 09:37:00 PM 42.4078 -71.7136 39° Northeast  Level FlightAware Approximate
Sat 09:38:00 PM 42.5107 -71.6010 39° Northeast  Level FlightAware Approximate
Sat 09:39:00 PM 42.6135 -71.4880 39° Northeast  Level FlightAware Approximate
Sat 09:40:00 PM 42.7162 -71.3747 39° Northeast  Level FlightAware Approximate
Sat 09:41:00 PM 42.8187 -71.2610 39° Northeast  Level FlightAware Approximate
Sat 09:42:00 PM 42.9212 -71.1469 39° Northeast  Level FlightAware Approximate
Sat 09:43:00 PM 43.0244 -71.0337 39° Northeast  Level FlightAware Approximate
Sat 09:44:00 PM 43.1275 -70.9204 39° Northeast  Level FlightAware Approximate
Sat 09:45:00 PM 43.2305 -70.8067 39° Northeast  Level FlightAware Approximate
Sat 09:46:00 PM 43.3335 -70.6926 39° Northeast  Level FlightAware Approximate
Sat 09:47:00 PM 43.4374 -70.5802 35° Northeast  Level FlightAware Approximate
Sat 09:48:00 PM 43.5460 -70.4761 35° Northeast  Level FlightAware Approximate
Sat 09:48:57 PM 40.6490 -73.7710 143° Southeast 27 31  Level FlightAware ADS-B
Sat 09:49:53 PM 40.6490 -73.7690 90° East 14 16 112 Level FlightAware ADS-B
Sat 09:52:00 PM 40.8739 -73.5690 57° Northeast  Level FlightAware Approximate
Sat 09:52:46 PM 40.6500 -73.7680 57° Northeast 17 20  Level FlightAware ADS-B
Sat 09:54:27 PM 40.6500 -73.7670 90° East 12 14 195 Level FlightAware ADS-B
Sat 09:54:52 PM 40.6490 -73.7660 143° Southeast 13 15 290 Level FlightAware ADS-B
Sat 09:55:26 PM 40.6490 -73.7650 90° East 28 32 330 Level FlightAware ADS-B
Sat 09:55:54 PM 40.6480 -73.7650 180° South 405 Level FlightAware ADS-B
Sat 09:57:05 PM 40.6470 -73.7660 217° Southwest 51 59 500 Level FlightAware ADS-B
Sat 09:57:26 PM 40.6370 -73.7740 211° Southwest 155 178 1,224 Level FlightAware ADS-B
Sat 09:57:54 PM 40.6170 -73.7890 210° Southwest 187 215 1,000 1,929 Climbing FlightAware ADS-B
Sat 09:58:22 PM 40.5940 -73.8040 203° Southwest 212 244 1,800 1,500 Climbing FlightAware ADS-B
Sat 09:58:50 PM 40.5650 -73.7930 164° South 257 296 2,400 1,364 Climbing FlightAware ADS-B
Sat 09:59:06 PM 40.5540 -73.7710 123° Southeast 277 319 2,800 1,862 Climbing FlightAware ADS-B
Sat 09:59:19 PM 40.5500 -73.7500 104° East 287 330 3,300 2,700 Climbing FlightAware ADS-B
Sat 09:59:46 PM 40.5560 -73.7040 80° East 288 331 4,600 3,000 Climbing FlightAware ADS-B
Sat 09:59:55 PM 40.5590 -73.6880 76° East 284 327 5,100 2,769 Climbing FlightAware ADS-B
Sat 10:00:25 PM 40.5790 -73.6440 59° Northeast 287 330 6,400 2,478 Climbing FlightAware ADS-B
Sat 10:00:41 PM 40.5960 -73.6300 32° Northeast 289 333 7,000 2,471 Climbing FlightAware ADS-B
Sat 10:00:59 PM 40.6187 -73.6131 29° Northeast 293 337 7,800 2,432 Climbing FlightAware ADS-B
Sat 10:01:18 PM 40.6414 -73.5967 29° Northeast 300 345 8,500 2,341 Climbing FlightAware ADS-B
Sat 10:01:40 PM 40.6682 -73.5778 28° Northeast 307 353 9,400 2,571 Climbing FlightAware ADS-B
Sat 10:02:00 PM 40.6929 -73.5592 30° Northeast 309 356 10,300 1,781 Climbing FlightAware ADS-B
Sat 10:02:44 PM 40.7521 -73.5157 29° Northeast 343 395 11,300 1,263 Climbing FlightAware ADS-B
Sat 10:03:16 PM 40.8010 -73.4860 25° Northeast 385 443 11,900 1,784 Climbing FlightAware ADS-B
Sat 10:03:58 PM 40.8745 -73.4430 24° Northeast 409 471 13,500 2,104 Climbing FlightAware ADS-B
Sat 10:04:33 PM 40.9370 -73.4063 24° Northeast 430 495 14,600 2,400 Climbing FlightAware ADS-B
Sat 10:05:03 PM 40.9904 -73.3730 25° Northeast 432 497 16,100 2,620 Climbing FlightAware ADS-B
Sat 10:05:44 PM 41.0680 -73.3267 24° Northeast 443 510 17,700 2,240 Climbing FlightAware ADS-B
Sat 10:06:18 PM 41.1301 -73.2899 24° Northeast 441 507 18,900 2,571 Climbing FlightAware ADS-B
Sat 10:06:54 PM 41.1985 -73.2478 25° Northeast 447 514 20,700 2,348 Climbing FlightAware ADS-B
Sat 10:07:27 PM 41.2612 -73.2098 24° Northeast 453 521 21,600 1,938 Climbing FlightAware ADS-B
Sat 10:07:59 PM 41.3235 -73.1726 24° Northeast 461 531 22,800 2,000 Climbing FlightAware ADS-B
Sat 10:08:12 PM 41.3498 -73.1550 27° Northeast 468 539 23,100 1,500 Climbing FlightAware ADS-B
Sat 10:08:23 PM 41.3682 -73.1380 35° Northeast 474 545 23,400 1,714 Climbing FlightAware ADS-B
Sat 10:08:47 PM 41.4049 -73.0856 47° Northeast 487 560 24,100 1,500 Climbing FlightAware ADS-B
Sat 10:09:23 PM 41.4482 -72.9902 59° Northeast 493 567 24,900 1,425 Climbing FlightAware ADS-B
Sat 10:10:07 PM 41.5021 -72.8736 58° Northeast 509 586 26,000 1,472 Climbing FlightAware ADS-B
Sat 10:10:16 PM 41.5171 -72.8541 44° Northeast 510 587 26,200 1,500 Climbing FlightAware ADS-B
Sat 10:10:55 PM 41.5880 -72.7790 38° Northeast 513 590 27,200 344 Climbing FlightAware ADS-B
Sat 10:13:28 PM 41.8320 -72.5230 38° Northeast 514 592 27,300 1,561 Climbing FlightAware ADS-B
Sat 10:14:11 PM 41.9690 -72.3920 35° Northeast 523 602 32,300 3,886 Climbing FlightAware ADS-B
Sat 10:14:56 PM 42.0580 -72.3050 36° Northeast 521 600 33,000 494 Climbing FlightAware ADS-B
Sat 10:15:36 PM 42.1360 -72.2280 36° Northeast 522 601 33,000  Level FlightAware ADS-B
Sat 10:16:21 PM 42.2260 -72.1390 36° Northeast 524 603 33,000  Level FlightAware ADS-B
Sat 10:17:01 PM 42.3070 -72.0590 36° Northeast 524 603 33,000  Level FlightAware ADS-B
Sat 10:17:36 PM 42.3760 -71.9910 36° Northeast 525 604 33,000  Level FlightAware ADS-B
Sat 10:18:21 PM 42.4630 -71.9040 36° Northeast 527 606 33,000  Level FlightAware ADS-B
Sat 10:19:01 PM 42.5430 -71.8240 36° Northeast 526 605 33,000  Level FlightAware ADS-B
Sat 10:19:41 PM 42.6160 -71.7510 36° Northeast 526 605 33,000  Level FlightAware ADS-B
Sat 10:20:26 PM 42.7050 -71.6610 37° Northeast 527 606 33,000  Level FlightAware ADS-B
Sat 10:21:06 PM 42.7910 -71.5750 36° Northeast 536 617 33,000  Level FlightAware ADS-B
Sat 10:21:51 PM 42.8800 -71.4840 37° Northeast 538 619 33,000  Level FlightAware ADS-B
Sat 10:22:26 PM 42.9490 -71.4130 37° Northeast 530 610 33,000  Level FlightAware ADS-B
Sat 10:23:01 PM 43.0180 -71.3440 36° Northeast 530 610 33,000  Level FlightAware ADS-B
Sat 10:23:46 PM 43.1060 -71.2540 37° Northeast 531 611 33,000  Level FlightAware ADS-B
Sat 10:24:26 PM 43.1860 -71.1720 37° Northeast 539 620 33,000  Level FlightAware ADS-B
Sat 10:25:06 PM 43.2690 -71.0860 37° Northeast 541 623 33,000  Level FlightAware ADS-B
Sat 10:25:46 PM 43.3480 -71.0040 37° Northeast 541 623 33,000  Level FlightAware ADS-B
Sat 10:26:26 PM 43.4290 -70.9210 37° Northeast 544 626 33,000  Level FlightAware ADS-B
Sat 10:27:11 PM 43.5170 -70.8280 37° Northeast 544 626 33,000 141 Level FlightAware ADS-B
Sat 10:27:51 PM 43.5990 -70.7430 37° Northeast 548 631 33,200 897 Climbing FlightAware ADS-B
Sat 10:28:38 PM 43.6950 -70.6420 37° Northeast 547 629 34,300 1,256 Climbing FlightAware ADS-B
Sat 10:29:17 PM 43.7730 -70.5600 37° Northeast 544 626 35,000 494 Climbing FlightAware ADS-B
Sat 10:30:03 PM 43.8650 -70.4630 37° Northeast 544 626 35,000  Level FlightAware ADS-B
Sat 10:30:43 PM 43.9460 -70.3770 37° Northeast 545 627 35,000  Level FlightAware ADS-B
Sat 10:31:21 PM 44.0220 -70.2960 37° Northeast 546 628 35,000  Level FlightAware ADS-B
Sat 10:32:07 PM 44.1140 -70.1980 37° Northeast 549 632 35,000  Level FlightAware ADS-B
Sat 10:32:51 PM 44.2030 -70.1030 37° Northeast 550 633 35,000  Level FlightAware ADS-B
Sat 10:33:23 PM 44.2660 -70.0350 38° Northeast 551 634 35,000  Level FlightAware ADS-B
Sat 10:34:07 PM 44.3560 -69.9380 38° Northeast 555 639 35,000  Level FlightAware ADS-B
Sat 10:34:47 PM 44.4360 -69.8500 38° Northeast 555 639 35,000  Level FlightAware ADS-B
Sat 10:35:23 PM 44.5070 -69.7730 38° Northeast 555 639 35,000  Level FlightAware ADS-B
Sat 10:36:07 PM 44.5960 -69.6760 38° Northeast 558 642 35,000  Level FlightAware ADS-B
Sat 10:36:51 PM 44.6850 -69.5780 38° Northeast 561 646 35,000  Level FlightAware ADS-B
Sat 10:37:34 PM 44.7780 -69.4760 38° Northeast 561 646 35,000  Level FlightAware ADS-B
Sat 10:38:15 PM 44.8610 -69.3850 38° Northeast 563 648 35,000  Level FlightAware ADS-B
Sat 10:38:50 PM 44.9310 -69.3070 38° Northeast 564 649 35,000  Level FlightAware ADS-B
Sat 10:39:34 PM 45.0230 -69.2050 38° Northeast 566 651 35,000  Level FlightAware ADS-B
Sat 10:40:14 PM 45.1040 -69.1140 38° Northeast 568 654 35,000  Level FlightAware ADS-B
Sat 10:40:58 PM 45.1950 -69.0120 38° Northeast 569 655 35,000  Level FlightAware ADS-B
Sat 10:41:42 PM 45.2870 -68.9090 38° Northeast 570 656 35,000  Level FlightAware ADS-B
Sat 10:42:22 PM 45.3690 -68.8160 39° Northeast 572 658 35,000  Level FlightAware ADS-B
Sat 10:43:25 PM 45.4910 -68.6790 38° Northeast 575 662 35,000  Level FlightAware ADS-B
Sat 10:44:08 PM 45.5880 -68.5660 39° Northeast 578 665 35,000  Level FlightAware ADS-B
Sat 10:44:42 PM 45.6590 -68.4850 39° Northeast 580 667 35,000  Level FlightAware ADS-B
Sat 10:45:23 PM 45.7430 -68.3890 39° Northeast 581 669 35,000  Level FlightAware ADS-B
Sat 10:46:08 PM 45.8360 -68.2810 39° Northeast 581 669 35,000  Level FlightAware ADS-B
Sat 10:46:48 PM 45.9210 -68.1830 39° Northeast 583 671 35,000  Level FlightAware ADS-B
Sat 10:47:29 PM 46.0050 -68.0840 39° Northeast 584 672 35,000  Level FlightAware ADS-B
Sat 10:48:14 PM 46.0980 -67.9760 39° Northeast 585 673 35,000  Level FlightAware ADS-B
Sat 10:48:48 PM 46.1740 -67.8860 39° Northeast 585 673 35,000  Level FlightAware ADS-B
Sat 10:49:49 PM 46.2990 -67.7380 39° Northeast 587 676 35,000  Level FlightAware ADS-B
Sat 10:50:24 PM 46.3660 -67.6590 39° Northeast 589 678 35,000  Level FlightAware ADS-B
Sat 10:51:04 PM 46.4380 -67.5740 39° Northeast 589 678 35,000  Level FlightAware ADS-B
Sat 10:51:52 PM 46.5250 -67.4720 39° Northeast 589 678 35,000  Level FlightAware ADS-B
Sat 10:52:28 PM 46.5900 -67.3960 39° Northeast 589 678 35,000  Level FlightAware ADS-B
Sat 10:53:04 PM 46.6540 -67.3200 39° Northeast 589 678 35,000  Level FlightAware ADS-B
Sat 10:53:52 PM 46.7410 -67.2170 39° Northeast 589 678 35,000  Level FlightAware ADS-B
Sat 10:54:28 PM 46.8060 -67.1410 39° Northeast 589 678 35,000  Level FlightAware ADS-B
Sat 10:55:16 PM 46.8920 -67.0380 39° Northeast 589 678 35,000  Level FlightAware ADS-B
Sat 10:55:52 PM 46.9570 -66.9620 39° Northeast 589 678 35,000  Level FlightAware ADS-B
Sat 10:56:40 PM 47.0430 -66.8590 39° Northeast 589 678 35,000  Level FlightAware ADS-B
Sat 10:57:16 PM 47.1080 -66.7820 39° Northeast 589 678 35,000  Level FlightAware ADS-B
Sat 10:57:52 PM 47.1730 -66.7050 39° Northeast 589 678 35,000  Level FlightAware ADS-B
Sat 10:58:52 PM 47.2810 -66.5760 39° Northeast 589 678 35,000  Level FlightAware ADS-B
Sat 10:59:41 PM 47.3690 -66.4710 39° Northeast 589 678 35,000  Level FlightAware ADS-B
Sat 11:00:17 PM 47.4340 -66.3930 39° Northeast 589 678 35,000  Level FlightAware ADS-B
Sat 11:01:16 PM 47.7000 -65.9333 39° Northeast 590 679 35,000  Level Gander Center
Sat 11:02:16 PM 47.8000 -65.7667 48° Northeast 590 679 35,000  Level Gander Center
Sat 11:03:16 PM 47.9333 -65.6000 40° Northeast 590 679 35,000  Level Gander Center
Sat 11:04:16 PM 48.0500 -65.4333 44° Northeast 590 679 35,000  Level Gander Center
Sat 11:05:16 PM 48.1667 -65.2667 44° Northeast 580 667 35,000  Level Gander Center
Sat 11:06:16 PM 48.2833 -65.1000 44° Northeast 590 679 35,000  Level Gander Center
Sat 11:07:16 PM 48.4000 -64.9333 43° Northeast 580 667 35,000  Level Gander Center
Sat 11:08:16 PM 48.5333 -64.7667 40° Northeast 590 679 35,000  Level Gander Center
Sat 11:09:16 PM 48.6333 -64.6000 48° Northeast 590 679 35,000  Level Gander Center
Sat 11:10:16 PM 48.7500 -64.4000 48° Northeast 590 679 35,000  Level Gander Center
Sat 11:11:16 PM 48.8833 -64.2500 36° Northeast 590 679 35,000  Level Gander Center
Sat 11:12:16 PM 49.0000 -64.0667 46° Northeast 590 679 35,000  Level Gander Center
Sat 11:13:16 PM 49.1000 -63.9167 44° Northeast 590 679 35,000  Level Gander Center
Sat 11:14:16 PM 49.2167 -63.7167 48° Northeast 590 679 35,000  Level Gander Center
Sat 11:15:16 PM 49.3500 -63.5333 42° Northeast 590 679 35,000  Level Gander Center
Sat 11:16:16 PM 49.4500 -63.3667 47° Northeast 590 679 35,000  Level Gander Center
Sat 11:17:16 PM 49.5667 -63.1833 46° Northeast 580 667 35,000  Level Gander Center
Sat 11:18:16 PM 49.6833 -63.0167 43° Northeast 580 667 35,000  Level Gander Center
Sat 11:19:16 PM 49.8000 -62.8333 45° Northeast 590 679 35,000  Level Gander Center
Sat 11:20:16 PM 49.9167 -62.6500 45° Northeast 590 679 35,000  Level Gander Center
Sat 11:21:16 PM 50.0333 -62.4833 43° Northeast 590 679 35,000  Level Gander Center
Sat 11:22:16 PM 50.1500 -62.3000 45° Northeast 580 667 35,000  Level Gander Center
Sat 11:23:16 PM 50.2667 -62.1167 45° Northeast 580 667 35,000  Level Gander Center
Sat 11:24:40 PM 50.4167 -61.8500 49° Northeast 590 679 35,000  Level Moncton Center
Sat 11:25:40 PM 50.5500 -61.6500 44° Northeast 580 667 35,000  Level Moncton Center
Sat 11:26:40 PM 50.6500 -61.5000 44° Northeast 580 667 35,000  Level Moncton Center
Sat 11:27:40 PM 50.7500 -61.3000 52° Northeast 580 667 35,000  Level Moncton Center
Sat 11:28:40 PM 50.8667 -61.1000 47° Northeast 590 679 35,000  Level Moncton Center
Sat 11:29:40 PM 50.9833 -60.9167 45° Northeast 590 679 35,000  Level Moncton Center
Sat 11:30:40 PM 51.1000 -60.7500 42° Northeast 580 667 35,000  Level Moncton Center
Sat 11:31:40 PM 51.2000 -60.5500 51° Northeast 590 679 35,000  Level Moncton Center
Sat 11:32:40 PM 51.3167 -60.3500 47° Northeast 580 667 35,000  Level Moncton Center
Sat 11:33:40 PM 51.4167 -60.1500 51° Northeast 580 667 35,000 350 Level Moncton Center
Sat 11:34:40 PM 51.5167 -59.9667 49° Northeast 590 679 35,700 500 Climbing Moncton Center
Sat 11:35:40 PM 51.6333 -59.7667 47° Northeast 590 679 36,000 150 Climbing Moncton Center
Sat 11:36:40 PM 51.7333 -59.5333 55° Northeast 590 679 36,000  Level Moncton Center
Sat 11:37:40 PM 51.8333 -59.3333 51° Northeast 590 679 36,000  Level Moncton Center
Sat 11:38:40 PM 51.9333 -59.1333 51° Northeast 580 667 36,000  Level Moncton Center
Sat 11:39:40 PM 52.0500 -58.9333 46° Northeast 580 667 36,000  Level Moncton Center
Sat 11:40:40 PM 52.1333 -58.7167 58° Northeast 580 667 36,000  Level Moncton Center
Sat 11:41:40 PM 52.2500 -58.5167 46° Northeast 580 667 36,000  Level Moncton Center
Sat 11:42:40 PM 52.3333 -58.3167 56° Northeast 580 667 36,000  Level Moncton Center
Sat 11:43:40 PM 52.4333 -58.1167 51° Northeast 580 667 36,000  Level Moncton Center
Sat 11:44:40 PM 52.5333 -57.9000 53° Northeast 590 679 36,000  Level Moncton Center
Sat 11:45:40 PM 52.6333 -57.6667 55° Northeast 590 679 36,000  Level Moncton Center
Sat 11:46:40 PM 52.7333 -57.4500 53° Northeast 590 679 36,000  Level Moncton Center
Sat 11:47:40 PM 52.8500 -57.2500 46° Northeast 590 679 36,000  Level Moncton Center
Sat 11:48:40 PM 52.9333 -57.0333 57° Northeast 590 679 36,000  Level Moncton Center
Sat 11:49:40 PM 53.0333 -56.8000 54° Northeast 590 679 36,000  Level Moncton Center
Sat 11:50:40 PM 53.1333 -56.5833 52° Northeast 590 679 36,000  Level Moncton Center
Sat 11:51:40 PM 53.2500 -56.3667 48° Northeast 590 679 36,000  Level Moncton Center
Sat 11:52:40 PM 53.3333 -56.1500 57° Northeast 590 679 36,000  Level Moncton Center
Sat 11:53:40 PM 53.4167 -55.9500 55° Northeast 580 667 36,000  Level Moncton Center
Sat 11:54:40 PM 53.5167 -55.7167 54° Northeast 580 667 36,000  Level Moncton Center
Sat 11:55:40 PM 53.6167 -55.5000 52° Northeast 590 679 36,000  Level Moncton Center
Sat 11:56:40 PM 53.7167 -55.2667 54° Northeast 580 667 36,000  Level Moncton Center
Sat 11:57:40 PM 53.8000 -55.0333 59° Northeast 580 667 36,000  Level Moncton Center
Sat 11:58:40 PM 53.8667 -54.8000 64° Northeast 580 667 36,000  Level Moncton Center
Sat 11:59:40 PM 53.9333 -54.5500 66° East 580 667 36,000  Level Moncton Center
Sun 12:00:40 AM 53.9833 -54.2833 72° East 570 656 36,000  Level Moncton Center
Sun 12:01:40 AM 54.0500 -54.0500 64° Northeast 580 667 36,000 Level Moncton Center
Sun 12:03:00 AM 54.1254 -53.7547 66° East  Level FlightAware Approximate
Sun 12:10:00 AM 54.5093 -52.1870 67° East  Level FlightAware Approximate
Sun 12:11:00 AM 54.5625 -51.9606 68° East  Level FlightAware Approximate
Sun 12:12:00 AM 54.6153 -51.7337 68° East  Level FlightAware Approximate
Sun 12:13:00 AM 54.6676 -51.5062 68° East  Level FlightAware Approximate
Sun 12:14:00 AM 54.7195 -51.2781 68° East  Level FlightAware Approximate
Sun 12:15:00 AM 54.7710 -51.0494 69° East  Level FlightAware Approximate
Sun 12:16:00 AM 54.8220 -50.8201 69° East  Level FlightAware Approximate
Sun 12:17:00 AM 54.8726 -50.5902 69° East  Level FlightAware Approximate
Sun 12:18:00 AM 54.9228 -50.3598 69° East  Level FlightAware Approximate
Sun 12:19:00 AM 54.9725 -50.1288 69° East  Level FlightAware Approximate
Sun 12:20:00 AM 55.0154 -49.8928 76° East  Level FlightAware Approximate
Sun 12:21:00 AM 55.0495 -49.6529 76° East  Level FlightAware Approximate
Sun 12:22:00 AM 55.0831 -49.4125 76° East  Level FlightAware Approximate
Sun 12:23:00 AM 55.1163 -49.1718 76° East  Level FlightAware Approximate
Sun 12:24:00 AM 55.1489 -48.9306 77° East  Level FlightAware Approximate
Sun 12:25:00 AM 55.1811 -48.6891 77° East  Level FlightAware Approximate
Sun 12:26:00 AM 55.2129 -48.4471 77° East  Level FlightAware Approximate
Sun 12:27:00 AM 55.2441 -48.2048 77° East  Level FlightAware Approximate
Sun 12:28:00 AM 55.2749 -47.9621 77° East  Level FlightAware Approximate
Sun 12:29:00 AM 55.3051 -47.7191 78° East  Level FlightAware Approximate
Sun 12:30:00 AM 55.3349 -47.4756 78° East  Level FlightAware Approximate
Sun 12:31:00 AM 55.3642 -47.2318 78° East  Level FlightAware Approximate
Sun 12:32:00 AM 55.3931 -46.9877 78° East  Level FlightAware Approximate
Sun 12:33:00 AM 55.4214 -46.7432 78° East  Level FlightAware Approximate
Sun 12:34:00 AM 55.4492 -46.4983 79° East  Level FlightAware Approximate
Sun 12:35:00 AM 55.4766 -46.2531 79° East  Level FlightAware Approximate
Sun 12:36:00 AM 55.5035 -46.0076 79° East  Level FlightAware Approximate
Sun 12:37:00 AM 55.5299 -45.7617 79° East  Level FlightAware Approximate
Sun 12:38:00 AM 55.5557 -45.5155 79° East  Level FlightAware Approximate
Sun 12:39:00 AM 55.5811 -45.2690 80° East  Level FlightAware Approximate
Sun 12:40:00 AM 55.6050 -45.0319 80° East  Level FlightAware Approximate
Sun 12:41:00 AM 55.6285 -44.7945 80° East  Level FlightAware Approximate
Sun 12:42:00 AM 55.6515 -44.5568 80° East  Level FlightAware Approximate
Sun 12:43:00 AM 55.6741 -44.3189 80° East  Level FlightAware Approximate
Sun 12:44:00 AM 55.6962 -44.0807 81° East  Level FlightAware Approximate
Sun 12:45:00 AM 55.7178 -43.8422 81° East  Level FlightAware Approximate
Sun 12:46:00 AM 55.7389 -43.6035 81° East  Level FlightAware Approximate
Sun 12:47:00 AM 55.7596 -43.3645 81° East  Level FlightAware Approximate
Sun 12:48:00 AM 55.7799 -43.1252 81° East  Level FlightAware Approximate
Sun 12:49:00 AM 55.7996 -42.8857 82° East  Level FlightAware Approximate
Sun 12:50:00 AM 55.8189 -42.6460 82° East  Level FlightAware Approximate
Sun 12:51:00 AM 55.8378 -42.4060 82° East  Level FlightAware Approximate
Sun 12:52:00 AM 55.8562 -42.1658 82° East  Level FlightAware Approximate
Sun 12:53:00 AM 55.8741 -41.9254 82° East  Level FlightAware Approximate
Sun 12:54:00 AM 55.8915 -41.6847 83° East  Level FlightAware Approximate
Sun 12:55:00 AM 55.9084 -41.4439 83° East  Level FlightAware Approximate
Sun 12:56:00 AM 55.9249 -41.2028 83° East  Level FlightAware Approximate
Sun 12:57:00 AM 55.9409 -40.9616 83° East  Level FlightAware Approximate
Sun 12:58:00 AM 55.9565 -40.7201 83° East  Level FlightAware Approximate
Sun 12:59:00 AM 55.9716 -40.4778 84° East  Level FlightAware Approximate
Sun 01:00:00 AM 55.9863 -40.2353 84° East  Level FlightAware Approximate
Sun 01:01:00 AM 56.0010 -39.9928 76° East  Level FlightAware Approximate
Sun 01:02:00 AM 56.0348 -39.7563 76° East  Level FlightAware Approximate
Sun 01:03:00 AM 56.0680 -39.5193 76° East  Level FlightAware Approximate
Sun 01:04:00 AM 56.1009 -39.2819 76° East  Level FlightAware Approximate
Sun 01:05:00 AM 56.1332 -39.0441 76° East  Level FlightAware Approximate
Sun 01:06:00 AM 56.1651 -38.8060 76° East  Level FlightAware Approximate
Sun 01:07:00 AM 56.1966 -38.5674 77° East  Level FlightAware Approximate
Sun 01:08:00 AM 56.2276 -38.3284 77° East  Level FlightAware Approximate
Sun 01:09:00 AM 56.2581 -38.0891 77° East  Level FlightAware Approximate
Sun 01:10:00 AM 56.2882 -37.8493 77° East  Level FlightAware Approximate
Sun 01:11:00 AM 56.3178 -37.6092 77° East  Level FlightAware Approximate
Sun 01:12:00 AM 56.3469 -37.3688 78° East  Level FlightAware Approximate
Sun 01:13:00 AM 56.3756 -37.1279 78° East  Level FlightAware Approximate
Sun 01:14:00 AM 56.4038 -36.8867 78° East  Level FlightAware Approximate
Sun 01:15:00 AM 56.4316 -36.6452 78° East  Level FlightAware Approximate
Sun 01:16:00 AM 56.4588 -36.4033 78° East  Level FlightAware Approximate
Sun 01:17:00 AM 56.4856 -36.1610 79° East  Level FlightAware Approximate
Sun 01:18:00 AM 56.5120 -35.9185 79° East  Level FlightAware Approximate
Sun 01:19:00 AM 56.5378 -35.6755 79° East  Level FlightAware Approximate
Sun 01:20:00 AM 56.5632 -35.4323 79° East  Level FlightAware Approximate
Sun 01:21:00 AM 56.5881 -35.1887 79° East  Level FlightAware Approximate
Sun 01:22:00 AM 56.6125 -34.9448 80° East  Level FlightAware Approximate
Sun 01:23:00 AM 56.6365 -34.7006 80° East  Level FlightAware Approximate
Sun 01:24:00 AM 56.6600 -34.4561 80° East  Level FlightAware Approximate
Sun 01:25:00 AM 56.6829 -34.2113 80° East  Level FlightAware Approximate
Sun 01:26:00 AM 56.7054 -33.9662 80° East  Level FlightAware Approximate
Sun 01:27:00 AM 56.7275 -33.7208 81° East  Level FlightAware Approximate
Sun 01:28:00 AM 56.7490 -33.4751 81° East  Level FlightAware Approximate
Sun 01:29:00 AM 56.7701 -33.2292 81° East  Level FlightAware Approximate
Sun 01:30:00 AM 56.7907 -32.9829 81° East  Level FlightAware Approximate
Sun 01:31:00 AM 56.8107 -32.7364 81° East  Level FlightAware Approximate
Sun 01:32:00 AM 56.8304 -32.4897 82° East  Level FlightAware Approximate
Sun 01:33:00 AM 56.8495 -32.2426 82° East  Level FlightAware Approximate
Sun 01:34:00 AM 56.8681 -31.9954 82° East  Level FlightAware Approximate
Sun 01:35:00 AM 56.8862 -31.7479 82° East  Level FlightAware Approximate
Sun 01:36:00 AM 56.9039 -31.5001 82° East  Level FlightAware Approximate
Sun 01:37:00 AM 56.9211 -31.2521 83° East  Level FlightAware Approximate
Sun 01:38:00 AM 56.9376 -31.0053 83° East  Level FlightAware Approximate
Sun 01:39:00 AM 56.9537 -30.7582 83° East  Level FlightAware Approximate
Sun 01:40:00 AM 56.9693 -30.5109 83° East  Level FlightAware Approximate
Sun 01:41:00 AM 56.9845 -30.2633 84° East  Level FlightAware Approximate
Sun 01:42:00 AM 56.9991 -30.0156 84° East  Level FlightAware Approximate
Sun 01:43:00 AM 57.0085 -29.7670 86° East  Level FlightAware Approximate
Sun 01:44:00 AM 57.0171 -29.5182 86° East  Level FlightAware Approximate
Sun 01:45:00 AM 57.0252 -29.2693 86° East  Level FlightAware Approximate
Sun 01:46:00 AM 57.0328 -29.0203 87° East  Level FlightAware Approximate
Sun 01:47:00 AM 57.0400 -28.7712 87° East  Level FlightAware Approximate
Sun 01:48:00 AM 57.0466 -28.5219 87° East  Level FlightAware Approximate
Sun 01:49:00 AM 57.0527 -28.2726 87° East  Level FlightAware Approximate
Sun 01:50:00 AM 57.0583 -28.0233 88° East  Level FlightAware Approximate
Sun 01:51:00 AM 57.0635 -27.7738 88° East  Level FlightAware Approximate
Sun 01:52:00 AM 57.0681 -27.5243 88° East  Level FlightAware Approximate
Sun 01:53:00 AM 57.0723 -27.2747 88° East  Level FlightAware Approximate
Sun 01:54:00 AM 57.0759 -27.0251 88° East  Level FlightAware Approximate
Sun 01:55:00 AM 57.0791 -26.7754 89° East  Level FlightAware Approximate
Sun 01:56:00 AM 57.0817 -26.5257 89° East  Level FlightAware Approximate
Sun 01:57:00 AM 57.0839 -26.2760 89° East  Level FlightAware Approximate
Sun 01:58:00 AM 57.0855 -26.0262 89° East  Level FlightAware Approximate
Sun 01:59:00 AM 57.0867 -25.7764 89° East  Level FlightAware Approximate
Sun 02:00:00 AM 57.0874 -25.5266 90° East  Level FlightAware Approximate
Sun 02:01:00 AM 57.0876 -25.2768 90° East  Level FlightAware Approximate
Sun 02:02:00 AM 57.0872 -25.0270 90° East  Level FlightAware Approximate
Sun 02:03:00 AM 57.0864 -24.7772 90° East  Level FlightAware Approximate
Sun 02:04:00 AM 57.0851 -24.5275 90° East  Level FlightAware Approximate
Sun 02:05:00 AM 57.0833 -24.2777 91° East  Level FlightAware Approximate
Sun 02:06:00 AM 57.0816 -24.0280 91° East  Level FlightAware Approximate
Sun 02:07:00 AM 57.0793 -23.7782 91° East  Level FlightAware Approximate
Sun 02:08:00 AM 57.0766 -23.5285 91° East  Level FlightAware Approximate
Sun 02:09:00 AM 57.0734 -23.2789 91° East  Level FlightAware Approximate
Sun 02:10:00 AM 57.0696 -23.0293 91° East  Level FlightAware Approximate
Sun 02:11:00 AM 57.0658 -22.7797 91° East  Level FlightAware Approximate
Sun 02:12:00 AM 57.0624 -22.5301 91° East  Level FlightAware Approximate
Sun 02:13:00 AM 57.0585 -22.2806 92° East  Level FlightAware Approximate
Sun 02:14:00 AM 57.0542 -22.0312 92° East  Level FlightAware Approximate
Sun 02:15:00 AM 57.0493 -21.7818 92° East  Level FlightAware Approximate
Sun 02:16:00 AM 57.0439 -21.5324 92° East  Level FlightAware Approximate
Sun 02:17:00 AM 57.0381 -21.2832 92° East  Level FlightAware Approximate
Sun 02:18:00 AM 57.0317 -21.0340 93° East  Level FlightAware Approximate
Sun 02:19:00 AM 57.0248 -20.7849 93° East  Level FlightAware Approximate
Sun 02:20:00 AM 57.0175 -20.5359 93° East  Level FlightAware Approximate
Sun 02:21:00 AM 57.0097 -20.2870 93° East  Level FlightAware Approximate
Sun 02:22:00 AM 57.0013 -20.0382 93° East  Level FlightAware Approximate
Sun 02:23:00 AM 56.9729 -19.7951 104° East  Level FlightAware Approximate
Sun 02:24:00 AM 56.9404 -19.5534 104° East  Level FlightAware Approximate
Sun 02:25:00 AM 56.9075 -19.3122 104° East  Level FlightAware Approximate
Sun 02:26:00 AM 56.8741 -19.0713 104° East  Level FlightAware Approximate
Sun 02:27:00 AM 56.8402 -18.8309 104° East  Level FlightAware Approximate
Sun 02:28:00 AM 56.8059 -18.5909 105° East  Level FlightAware Approximate
Sun 02:29:00 AM 56.7711 -18.3514 105° East  Level FlightAware Approximate
Sun 02:30:00 AM 56.7358 -18.1123 105° East  Level FlightAware Approximate
Sun 02:31:00 AM 56.7001 -17.8737 105° East  Level FlightAware Approximate
Sun 02:32:00 AM 56.6640 -17.6355 105° East  Level FlightAware Approximate
Sun 02:33:00 AM 56.6274 -17.3978 106° East  Level FlightAware Approximate
Sun 02:34:00 AM 56.5903 -17.1605 106° East  Level FlightAware Approximate
Sun 02:35:00 AM 56.5528 -16.9237 106° East  Level FlightAware Approximate
Sun 02:36:00 AM 56.5148 -16.6874 106° East  Level FlightAware Approximate
Sun 02:37:00 AM 56.4764 -16.4516 106° East  Level FlightAware Approximate
Sun 02:38:00 AM 56.4376 -16.2162 107° East  Level FlightAware Approximate
Sun 02:39:00 AM 56.3983 -15.9813 107° East  Level FlightAware Approximate
Sun 02:40:00 AM 56.3585 -15.7469 107° East  Level FlightAware Approximate
Sun 02:41:00 AM 56.3182 -15.5131 107° East  Level FlightAware Approximate
Sun 02:42:00 AM 56.2774 -15.2798 107° East  Level FlightAware Approximate
Sun 02:43:00 AM 56.2361 -15.0470 108° East  Level FlightAware Approximate
Sun 02:44:00 AM 56.1944 -14.8148 108° East  Level FlightAware Approximate
Sun 02:45:00 AM 56.1522 -14.5830 108° East  Level FlightAware Approximate
Sun 02:46:00 AM 56.1096 -14.3518 108° East  Level FlightAware Approximate
Sun 02:47:00 AM 56.0666 -14.1210 108° East  Level FlightAware Approximate
Sun 02:48:00 AM 56.0232 -13.8908 109° East  Level FlightAware Approximate
Sun 02:49:00 AM 55.9793 -13.6611 109° East  Level FlightAware Approximate
Sun 02:50:00 AM 55.9350 -13.4319 109° East  Level FlightAware Approximate
Sun 02:50:57 AM 56.4920 -12.3330 109° East 473 544 37,000  Level FlightAware ADS-B
Sun 02:51:00 AM 55.8902 -13.2033 109° East  Level FlightAware Approximate
Sun 02:51:39 AM 56.4520 -12.1800 115° Southeast 471 542 37,000  Level FlightAware ADS-B
Sun 02:52:24 AM 56.4100 -12.0220 116° Southeast 468 539 37,000  Level FlightAware ADS-B
Sun 02:52:59 AM 56.3760 -11.8960 116° Southeast 467 537 37,000  Level FlightAware ADS-B
Sun 02:53:49 AM 56.3290 -11.7200 116° Southeast 467 537 37,000  Level FlightAware ADS-B
Sun 02:54:35 AM 56.2860 -11.5620 116° Southeast 470 541 37,000  Level FlightAware ADS-B
Sun 02:55:09 AM 56.2540 -11.4420 116° Southeast 465 535 37,000  Level FlightAware ADS-B
Sun 02:56:04 AM 56.2000 -11.2530 117° Southeast 463 533 37,000  Level FlightAware ADS-B
Sun 02:56:49 AM 56.1540 -11.0950 118° Southeast 462 532 37,000  Level FlightAware ADS-B
Sun 02:57:29 AM 56.1140 -10.9610 118° Southeast 463 533 37,000  Level FlightAware ADS-B
Sun 02:58:14 AM 56.0690 -10.8080 118° Southeast 462 532 37,000  Level FlightAware ADS-B
Sun 02:58:49 AM 56.0350 -10.6910 117° Southeast 461 531 37,000  Level FlightAware ADS-B
Sun 02:59:34 AM 55.9890 -10.5370 118° Southeast 460 529 37,000  Level FlightAware ADS-B
Sun 03:00:27 AM 55.9400 -10.3720 118° Southeast 461 531 37,000  Level FlightAware ADS-B
Sun 03:00:55 AM 55.9070 -10.2650 119° Southeast 462 532 37,000  Level FlightAware ADS-B
Sun 03:03:21 AM 55.7580 -9.7800 118° Southeast 459 528 37,000  Level FlightAware ADS-B
Sun 03:04:02 AM 55.7200 -9.6590 119° Southeast 452 520 37,000  Level FlightAware ADS-B
Sun 03:04:47 AM 55.6700 -9.4980 119° Southeast 447 514 37,000  Level FlightAware ADS-B
Sun 03:05:22 AM 55.6360 -9.3900 119° Southeast 446 513 37,000  Level FlightAware ADS-B
Sun 03:06:03 AM 55.5950 -9.2590 119° Southeast 447 514 37,000  Level FlightAware ADS-B
Sun 03:06:33 AM 55.5640 -9.1620 119° Southeast 447 514 37,000  Level FlightAware ADS-B
Sun 03:07:14 AM 55.5210 -9.0280 120° Southeast 448 516 37,000  Level FlightAware ADS-B
Sun 03:07:54 AM 55.4790 -8.8970 119° Southeast 455 524 37,000  Level FlightAware ADS-B
Sun 03:08:35 AM 55.4410 -8.7760 119° Southeast 455 524 37,000  Level FlightAware ADS-B
Sun 03:09:24 AM 55.3870 -8.6100 120° Southeast 454 522 37,000  Level FlightAware ADS-B
Sun 03:10:04 AM 55.3450 -8.4820 120° Southeast 453 521 37,000  Level FlightAware ADS-B
Sun 03:10:39 AM 55.3100 -8.3760 120° Southeast 453 521 37,000  Level FlightAware ADS-B
Sun 03:11:19 AM 55.2660 -8.2420 120° Southeast 453 521 37,000  Level FlightAware ADS-B
Sun 03:12:04 AM 55.2190 -8.1010 120° Southeast 453 521 37,000  Level FlightAware ADS-B
Sun 03:12:34 AM 55.1880 -8.0060 120° Southeast 453 521 37,000  Level FlightAware ADS-B
Sun 03:13:19 AM 55.1400 -7.8620 120° Southeast 454 522 37,000  Level FlightAware ADS-B
Sun 03:13:59 AM 55.0980 -7.7370 120° Southeast 451 519 37,000  Level FlightAware ADS-B
Sun 03:14:44 AM 55.0500 -7.5970 121° Southeast 451 519 37,000  Level FlightAware ADS-B
Sun 03:15:24 AM 55.0080 -7.4710 120° Southeast 451 519 37,000  Level FlightAware ADS-B
Sun 03:16:09 AM 54.9600 -7.3310 121° Southeast 449 517 37,000  Level FlightAware ADS-B
Sun 03:16:49 AM 54.9170 -7.2060 121° Southeast 450 518 37,000  Level FlightAware ADS-B
Sun 03:17:24 AM 54.8790 -7.0970 121° Southeast 449 517 37,000  Level FlightAware ADS-B
Sun 03:18:04 AM 54.8360 -6.9720 121° Southeast 448 516 37,000  Level FlightAware ADS-B
Sun 03:18:49 AM 54.7880 -6.8330 121° Southeast 449 517 37,000  Level FlightAware ADS-B
Sun 03:19:24 AM 54.7500 -6.7250 121° Southeast 450 518 37,000  Level FlightAware ADS-B
Sun 03:19:54 AM 54.7160 -6.6300 122° Southeast 451 519 37,000  Level FlightAware ADS-B
Sun 03:20:39 AM 54.6680 -6.4930 121° Southeast 458 527 37,000  Level FlightAware ADS-B
Sun 03:21:09 AM 54.6360 -6.4030 122° Southeast 458 527 37,000  Level FlightAware ADS-B
Sun 03:21:55 AM 54.5840 -6.2590 122° Southeast 457 526 37,000  Level FlightAware ADS-B
Sun 03:22:40 AM 54.5330 -6.1160 122° Southeast 457 526 37,000  Level FlightAware ADS-B
Sun 03:23:20 AM 54.4890 -5.9950 122° Southeast 456 525 37,000  Level FlightAware ADS-B
Sun 03:24:06 AM 54.4380 -5.8550 122° Southeast 457 526 37,000  Level FlightAware ADS-B
Sun 03:24:36 AM 54.4040 -5.7610 122° Southeast 456 525 37,000  Level FlightAware ADS-B
Sun 03:25:21 AM 54.3540 -5.6230 122° Southeast 455 524 37,000  Level FlightAware ADS-B
Sun 03:25:56 AM 54.3150 -5.5170 122° Southeast 455 524 37,000  Level FlightAware ADS-B
Sun 03:26:46 AM 54.2580 -5.3640 122° Southeast 458 527 37,000 -67 Level FlightAware ADS-B
Sun 03:27:26 AM 54.2120 -5.2410 123° Southeast 458 527 36,900 -675 Descending FlightAware ADS-B
Sun 03:28:06 AM 54.1680 -5.1220 122° Southeast 455 524 36,100 -635 Descending FlightAware ADS-B
Sun 03:28:51 AM 54.1170 -4.9870 123° Southeast 453 521 36,000 -71 Descending FlightAware ADS-B
Sun 03:29:31 AM 54.0710 -4.8660 123° Southeast 453 521 36,000  Level FlightAware ADS-B
Sun 03:30:11 AM 54.0260 -4.7480 123° Southeast 450 518 36,000  Level FlightAware ADS-B
Sun 03:30:56 AM 53.9750 -4.6130 123° Southeast 450 518 36,000  Level FlightAware ADS-B
Sun 03:31:36 AM 53.9290 -4.4940 123° Southeast 449 517 36,000  Level FlightAware ADS-B
Sun 03:32:21 AM 53.8780 -4.3610 123° Southeast 450 518 36,000  Level FlightAware ADS-B
Sun 03:33:01 AM 53.8320 -4.2430 123° Southeast 447 514 36,000  Level FlightAware ADS-B
Sun 03:33:36 AM 53.7930 -4.1440 124° Southeast 447 514 36,000  Level FlightAware ADS-B
Sun 03:34:21 AM 53.7410 -4.0090 123° Southeast 446 513 36,000  Level FlightAware ADS-B
Sun 03:35:01 AM 53.6950 -3.8930 124° Southeast 448 516 36,000  Level FlightAware ADS-B
Sun 03:35:36 AM 53.6540 -3.7890 124° Southeast 449 517 36,000  Level FlightAware ADS-B
Sun 03:36:17 AM 53.6080 -3.6720 123° Southeast 448 516 36,000  Level FlightAware ADS-B
Sun 03:37:07 AM 53.5475 -3.5205 124° Southeast 454 522 36,000  Level FlightAware ADS-B
Sun 03:37:40 AM 53.5086 -3.4236 124° Southeast 455 524 36,000  Level FlightAware ADS-B
Sun 03:38:10 AM 53.4729 -3.3347 124° Southeast 457 526 36,000  Level FlightAware ADS-B
Sun 03:38:42 AM 53.4353 -3.2414 124° Southeast 454 522 36,000  Level FlightAware ADS-B
Sun 03:39:14 AM 53.3981 -3.1495 124° Southeast 455 524 36,000  Level FlightAware ADS-B
Sun 03:39:44 AM 53.3608 -3.0615 125° Southeast 454 522 36,000  Level FlightAware ADS-B
Sun 03:40:16 AM 53.3207 -2.9735 127° Southeast 454 522 36,000 -179 Level FlightAware ADS-B
Sun 03:40:51 AM 53.2764 -2.8758 127° Southeast 458 527 35,800 -698 Descending FlightAware ADS-B
Sun 03:41:42 AM 53.2095 -2.7353 128° Southeast 461 531 35,000 -988 Descending FlightAware ADS-B
Sun 03:42:16 AM 53.1540 -2.6574 140° Southeast 451 519 34,400 -923 Descending FlightAware ADS-B
Sun 03:42:47 AM 53.1037 -2.5935 143° Southeast 451 519 34,000 -387 Descending FlightAware ADS-B
Sun 03:43:18 AM 53.0524 -2.5280 143° Southeast 458 527 34,000  Level FlightAware ADS-B
Sun 03:43:51 AM 52.9974 -2.4568 142° Southeast 459 528 34,000  Level FlightAware ADS-B
Sun 03:44:26 AM 52.9399 -2.3815 142° Southeast 459 528 34,000 -640 Level FlightAware ADS-B
Sun 03:45:06 AM 52.8730 -2.2945 142° Southeast 453 521 33,200 -1,099 Descending FlightAware ADS-B
Sun 03:45:37 AM 52.8224 -2.2291 142° Southeast 451 519 32,700 -1,065 Descending FlightAware ADS-B
Sun 03:46:08 AM 52.7717 -2.1640 142° Southeast 445 512 32,100 -1,619 Descending FlightAware ADS-B
Sun 03:46:40 AM 52.7206 -2.0988 142° Southeast 436 502 31,000 -2,095 Descending FlightAware ADS-B
Sun 03:47:11 AM 52.6708 -2.0355 142° Southeast 429 494 29,900 -2,066 Descending FlightAware ADS-B
Sun 03:47:41 AM 52.6240 -1.9761 142° Southeast 423 487 28,900 -1,909 Descending FlightAware ADS-B
Sun 03:48:17 AM 52.5697 -1.9076 142° Southeast 415 478 27,800 -1,909 Descending FlightAware ADS-B
Sun 03:48:47 AM 52.5238 -1.8496 142° Southeast 410 472 26,800 -2,038 Descending FlightAware ADS-B
Sun 03:49:10 AM 52.4915 -1.8038 139° Southeast 405 466 26,000 -1,925 Descending FlightAware ADS-B
Sun 03:49:40 AM 52.4512 -1.7402 136° Southeast 399 459 25,100 -1,869 Descending FlightAware ADS-B
Sun 03:50:11 AM 52.4113 -1.6771 136° Southeast 392 451 24,100 -1,869 Descending FlightAware ADS-B
Sun 03:50:41 AM 52.3719 -1.6151 136° Southeast 388 447 23,200 -1,869 Descending FlightAware ADS-B
Sun 03:51:12 AM 52.3329 -1.5542 136° Southeast 382 440 22,200 -1,905 Descending FlightAware ADS-B
Sun 03:51:44 AM 52.2921 -1.4901 136° Southeast 376 433 21,200 -1,839 Descending FlightAware ADS-B
Sun 03:52:14 AM 52.2546 -1.4312 136° Southeast 371 427 20,300 -1,475 Descending FlightAware ADS-B
Sun 03:52:45 AM 52.2166 -1.3715 136° Southeast 365 420 19,700 -1,161 Descending FlightAware ADS-B
Sun 03:53:16 AM 52.1800 -1.3141 136° Southeast 363 418 19,100 -1,279 Descending FlightAware ADS-B
Sun 03:53:46 AM 52.1437 -1.2574 136° Southeast 362 417 18,400 -1,333 Descending FlightAware ADS-B
Sun 03:53:52 AM 52.1352 -1.2455 139° Southeast 361 415 18,300 -1,412 Descending FlightAware ADS-B
Sun 03:54:03 AM 52.1208 -1.2286 144° Southeast 359 413 18,000 -1,756 Descending FlightAware ADS-B
Sun 03:54:33 AM 52.0789 -1.1843 147° Southeast 358 412 17,100 -1,935 Descending FlightAware ADS-B
Sun 03:55:05 AM 52.0351 -1.1383 147° Southeast 360 414 16,000 -2,032 Descending FlightAware ADS-B
Sun 03:55:35 AM 51.9924 -1.0938 147° Southeast 360 414 15,000 -2,066 Descending FlightAware ADS-B
Sun 03:56:06 AM 51.9499 -1.0502 148° Southeast 359 413 13,900 -1,672 Descending FlightAware ADS-B
Sun 03:56:36 AM 51.9086 -1.0077 148° Southeast 347 399 13,300 -1,171 Descending FlightAware ADS-B
Sun 03:56:47 AM 51.8947 -0.9888 140° Southeast 342 394 13,100 -947 Descending FlightAware ADS-B
Sun 03:56:55 AM 51.8860 -0.9740 133° Southeast 337 388 13,000 -857 Descending FlightAware ADS-B
Sun 03:57:01 AM 51.8801 -0.9621 129° Southeast 334 384 12,900 -1,059 Descending FlightAware ADS-B
Sun 03:57:12 AM 51.8708 -0.9404 125° Southeast 330 380 12,700 -1,143 Descending FlightAware ADS-B
Sun 03:57:43 AM 51.8476 -0.8769 121° Southeast 318 366 12,100 -689 Descending FlightAware ADS-B
Sun 03:58:13 AM 51.8256 -0.8168 121° Southeast 295 339 12,000 -102 Descending FlightAware ADS-B
Sun 03:58:42 AM 51.8065 -0.7651 121° Southeast 267 307 12,000  Level FlightAware ADS-B
Sun 03:59:13 AM 51.7879 -0.7149 121° Southeast 257 296 12,000  Level FlightAware ADS-B
Sun 03:59:41 AM 51.7708 -0.6694 121° Southeast 257 296 12,000 -103 Level FlightAware ADS-B
Sun 04:00:11 AM 51.7523 -0.6199 121° Southeast 256 295 11,900 -500 Descending FlightAware ADS-B
Sun 04:00:29 AM 51.7413 -0.5911 122° Southeast 253 291 11,600 -1,000 Descending FlightAware ADS-B
Sun 04:00:35 AM 51.7364 -0.5812 129° Southeast 253 291 11,500 -1,200 Descending FlightAware ADS-B
Sun 04:00:39 AM 51.7334 -0.5768 138° Southeast 252 290 11,400 -857 Descending FlightAware ADS-B
Sun 04:00:42 AM 51.7301 -0.5728 144° Southeast 251 289 11,400 -857 Level FlightAware ADS-B
Sun 04:00:46 AM 51.7267 -0.5697 150° Southeast 251 289 11,300 -667 Descending FlightAware ADS-B
Sun 04:00:51 AM 51.7214 -0.5663 158° South 250 288 11,300 -1,091 Level FlightAware ADS-B
Sun 04:00:57 AM 51.7136 -0.5639 169° South 253 291 11,100 -1,135 Descending FlightAware ADS-B
Sun 04:01:28 AM 51.6774 -0.5628 179° South 255 293 10,600 -1,222 Descending FlightAware ADS-B
Sun 04:01:51 AM 51.6502 -0.5622 179° South 253 291 10,000 -1,579 Descending FlightAware ADS-B
Sun 04:02:06 AM 51.6324 -0.5614 179° South 253 291 9,600 -1,548 Descending FlightAware ADS-B
Sun 04:02:22 AM 51.6145 -0.5607 178° South 252 290 9,200 -1,313 Descending FlightAware ADS-B
Sun 04:02:38 AM 51.5958 -0.5601 179° South 251 289 8,900 -1,500 Descending FlightAware ADS-B
Sun 04:02:46 AM 51.5858 -0.5599 179° South 251 289 8,600 -2,182 Descending FlightAware ADS-B
Sun 04:02:49 AM 51.5824 -0.5601 182° South 251 289 8,500 -1,714 Descending FlightAware ADS-B
Sun 04:02:53 AM 51.5778 -0.5611 188° South 252 290 8,400 -750 Descending FlightAware ADS-B
Sun 04:02:57 AM 51.5739 -0.5627 195° South 252 290 8,400 -750 Level FlightAware ADS-B
Sun 04:03:01 AM 51.5696 -0.5653 201° Southwest 252 290 8,300 -857 Descending FlightAware ADS-B
Sun 04:03:04 AM 51.5658 -0.5687 209° Southwest 252 290 8,300 -1,000 Level FlightAware ADS-B
Sun 04:03:07 AM 51.5629 -0.5720 216° Southwest 253 291 8,200 -857 Descending FlightAware ADS-B
Sun 04:03:11 AM 51.5601 -0.5759 221° Southwest 253 291 8,200 -750 Level FlightAware ADS-B
Sun 04:03:15 AM 51.5569 -0.5814 227° Southwest 254 292 8,100 -1,714 Descending FlightAware ADS-B
Sun 04:03:18 AM 51.5548 -0.5862 235° Southwest 255 293 8,000 -1,000 Descending FlightAware ADS-B
Sun 04:03:21 AM 51.5529 -0.5918 241° Southwest 255 293 8,000 -857 Level FlightAware ADS-B
Sun 04:03:25 AM 51.5512 -0.5979 246° West 256 295 7,900 -1,500 Descending FlightAware ADS-B
Sun 04:03:29 AM 51.5500 -0.6052 255° West 257 296 7,800 -750 Descending FlightAware ADS-B
Sun 04:03:33 AM 51.5493 -0.6132 262° West 258 297 7,800 -750 Level FlightAware ADS-B
Sun 04:03:37 AM 51.5493 -0.6204 270° West 258 297 7,700 -1,714 Descending FlightAware ADS-B
Sun 04:03:40 AM 51.5496 -0.6273 274° West 259 298 7,600 -1,000 Descending FlightAware ADS-B
Sun 04:03:43 AM 51.5501 -0.6332 278° West 259 298 7,600 -1,412 Level FlightAware ADS-B
Sun 04:03:57 AM 51.5526 -0.6586 279° West 261 300 7,200 -1,448 Descending FlightAware ADS-B
Sun 04:04:12 AM 51.5558 -0.6870 280° West 260 299 6,900 -1,200 Descending FlightAware ADS-B
Sun 04:04:27 AM 51.5590 -0.7160 280° West 260 299 6,600 -1,200 Descending FlightAware ADS-B
Sun 04:04:42 AM 51.5619 -0.7446 279° West 258 297 6,300 -1,143 Descending FlightAware ADS-B
Sun 04:04:48 AM 51.5627 -0.7554 277° West 258 297 6,200 -1,500 Descending FlightAware ADS-B
Sun 04:04:54 AM 51.5630 -0.7681 272° West 257 296 6,000 -1,286 Descending FlightAware ADS-B
Sun 04:05:02 AM 51.5627 -0.7824 268° West 256 295 5,900 -1,143 Descending FlightAware ADS-B
Sun 04:05:15 AM 51.5616 -0.8073 266° West 256 295 5,600 -1,286 Descending FlightAware ADS-B
Sun 04:05:30 AM 51.5599 -0.8365 265° West 254 292 5,300 -923 Descending FlightAware ADS-B
Sun 04:05:41 AM 51.5585 -0.8568 264° West 251 289 5,200 -800 Descending FlightAware ADS-B
Sun 04:05:45 AM 51.5577 -0.8642 260° West 249 287 5,100 -750 Descending FlightAware ADS-B
Sun 04:05:49 AM 51.5566 -0.8712 256° West 248 285 5,100 -667 Level FlightAware ADS-B
Sun 04:05:54 AM 51.5551 -0.8800 255° West 246 283 5,000 -857 Descending FlightAware ADS-B
Sun 04:06:10 AM 51.5495 -0.9060 251° West 241 277 4,800 -818 Descending FlightAware ADS-B
Sun 04:06:16 AM 51.5470 -0.9156 247° West 241 277 4,700 -667 Descending FlightAware ADS-B
Sun 04:06:19 AM 51.5450 -0.9219 243° Southwest 239 275 4,700 -857 Level FlightAware ADS-B
Sun 04:06:23 AM 51.5425 -0.9277 235° Southwest 237 273 4,600 -1,333 Descending FlightAware ADS-B
Sun 04:06:28 AM 51.5393 -0.9333 228° Southwest 234 269 4,500 -667 Descending FlightAware ADS-B
Sun 04:06:32 AM 51.5356 -0.9380 218° Southwest 231 266 4,500 -857 Level FlightAware ADS-B
Sun 04:06:35 AM 51.5328 -0.9406 210° Southwest 229 264 4,400 -857 Descending FlightAware ADS-B
Sun 04:06:39 AM 51.5296 -0.9428 203° Southwest 226 260 4,400 -600 Level FlightAware ADS-B
Sun 04:06:45 AM 51.5238 -0.9450 193° South 221 254 4,300 -667 Descending FlightAware ADS-B
Sun 04:06:48 AM 51.5208 -0.9453 184° South 219 252 4,300 -857 Level FlightAware ADS-B
Sun 04:06:52 AM 51.5169 -0.9448 175° South 214 246 4,200 -750 Descending FlightAware ADS-B
Sun 04:06:56 AM 51.5125 -0.9428 164° South 209 241 4,200 -667 Level FlightAware ADS-B
Sun 04:07:01 AM 51.5084 -0.9393 152° Southeast 205 236 4,100 -600 Descending FlightAware ADS-B
Sun 04:07:06 AM 51.5052 -0.9353 142° Southeast 202 232 4,100 -667 Level FlightAware ADS-B
Sun 04:07:10 AM 51.5028 -0.9310 132° Southeast 200 230 4,000 -750 Descending FlightAware ADS-B
Sun 04:07:14 AM 51.5006 -0.9264 128° Southeast 197 227 4,000 -857 Level FlightAware ADS-B
Sun 04:07:17 AM 51.4989 -0.9223 123° Southeast 196 226 3,900 -667 Descending FlightAware ADS-B
Sun 04:07:32 AM 51.4920 -0.9037 121° Southeast 188 216 3,800 -300 Descending FlightAware ADS-B
Sun 04:07:37 AM 51.4897 -0.8975 121° Southeast 187 215 3,800 -286 Level FlightAware ADS-B
Sun 04:07:53 AM 51.4829 -0.8796 121° Southeast 186 214 3,700 -571 Descending FlightAware ADS-B
Sun 04:07:58 AM 51.4804 -0.8727 120° Southeast 187 215 3,600 -1,200 Descending FlightAware ADS-B
Sun 04:08:03 AM 51.4790 -0.8676 114° Southeast 187 215 3,500 -750 Descending FlightAware ADS-B
Sun 04:08:06 AM 51.4781 -0.8631 108° East 188 216 3,500  Level FlightAware ADS-B
Sun 04:08:11 AM 51.4772 -0.8566 103° East 189 217 3,500 -750 Level FlightAware ADS-B
Sun 04:08:14 AM 51.4768 -0.8520 98° East 189 217 3,400 -1,200 Descending FlightAware ADS-B
Sun 04:08:21 AM 51.4763 -0.8428 95° East 190 219 3,300 -462 Descending FlightAware ADS-B
Sun 04:08:27 AM 51.4763 -0.8341 90° East 191 220 3,300 -286 Level FlightAware ADS-B
Sun 04:08:42 AM 51.4762 -0.8131 90° East 189 217 3,200 -240 Descending FlightAware ADS-B
Sun 04:08:52 AM 51.4761 -0.7987 91° East 188 216 3,200  Level FlightAware ADS-B
Sun 04:09:07 AM 51.4762 -0.7778 90° East 188 216 3,200  Level FlightAware ADS-B
Sun 04:09:23 AM 51.4763 -0.7552 90° East 189 217 3,200 -563 Level FlightAware ADS-B
Sun 04:09:39 AM 51.4763 -0.7328 90° East 190 219 2,900 -938 Descending FlightAware ADS-B
Sun 04:09:55 AM 51.4765 -0.7105 89° East 185 213 2,700 -968 Descending FlightAware ADS-B
Sun 04:10:10 AM 51.4766 -0.6907 90° East 173 199 2,400 -1,000 Descending FlightAware ADS-B
Sun 04:10:25 AM 51.4767 -0.6720 89° East 160 184 2,200 -750 Descending FlightAware ADS-B
Sun 04:10:42 AM 51.4768 -0.6529 90° East 156 180 2,000 -750 Descending FlightAware ADS-B
Sun 04:10:57 AM 51.4769 -0.6356 89° East 154 177 1,800 -968 Descending FlightAware ADS-B
Sun 04:11:13 AM 51.4770 -0.6175 89° East 154 177 1,500 -968 Descending FlightAware ADS-B
Sun 04:11:28 AM 51.4770 -0.6007 90° East 153 176 1,300 -857 Descending FlightAware ADS-B
Sun 04:11:41 AM 51.4771 -0.5852 89° East 155 178 1,100 -923 Descending FlightAware ADS-B
Sun 04:14:00 AM 51.4775 -0.4614 137° Southeast  Level Estimated
Sun 04:14:08 AM 51.4780 -0.4720 137° Southeast 142 163  Level FlightAware ADS-B

Login

Don't have an account? Register now (free) for customized features, flight alerts, and more!